Photometre #45[NE_1.6] Lille AOT

File : 20220928_45.hum

28/09/2022,06:39:11,TEMP=9.9,BA=5.64,STAT.A=8.5,ExtBa=12.91
28/09/2022,06:43:19,TEMP=11.0,BA=5.56,STAT.A=8.0,ExtBa=12.81
28/09/2022,06:48:09,TEMP=11.3,BA=5.56,STAT.A=8.0,ExtBa=12.73
28/09/2022,06:53:55,TEMP=11.5,BA=5.64,STAT.A=8.5,ExtBa=12.70
28/09/2022,07:00:52,TEMP=11.8,BA=5.64,STAT.A=8.5,ExtBa=12.72
28/09/2022,07:09:32,TEMP=12.1,BA=5.64,STAT.A=8.5,ExtBa=12.72
28/09/2022,07:20:31,TEMP=12.6,BA=5.64,STAT.B=8.5,ExtBa=12.72
28/09/2022,07:30:00,TEMP=17.3,BA=5.64,STAT.A=6.5,ExtBa=12.42
28/09/2022,07:31:54,TEMP=17.5,BA=5.48,STAT.A=6.5,ExtBa=12.45
28/09/2022,07:38:32,TEMP=14.4,BA=5.48,STAT.A=8.5,ExtBa=12.64
28/09/2022,07:46:16,TEMP=14.3,BA=5.52,STAT.A=8.5,ExtBa=12.69
28/09/2022,07:55:15,TEMP=14.5,BA=5.64,STAT.C=8.5,ExtBa=12.71
28/09/2022,08:09:11,TEMP=19.5,BA=5.48,STAT.A=6.5,ExtBa=12.37
28/09/2022,08:18:29,TEMP=15.6,BA=5.48,STAT.A=8.5,ExtBa=12.67
28/09/2022,08:34:02,TEMP=15.5,BA=5.64,STAT.A=8.5,ExtBa=12.78
28/09/2022,08:38:45,TEMP=16.2,BA=5.64,STAT.F,ExtBa=12.69
28/09/2022,08:53:43,TEMP=19.1,BA=5.48,STAT.D=7.0,ExtBa=12.43
28/09/2022,09:08:43,TEMP=16.7,BA=5.64,STAT.D=8.5,ExtBa=12.72
28/09/2022,09:23:43,TEMP=16.6,BA=5.64,STAT.D=8.5,ExtBa=12.77
28/09/2022,09:38:45,TEMP=16.8,BA=5.64,STAT.F,ExtBa=12.78
28/09/2022,09:53:43,TEMP=16.6,BA=5.64,STAT.D=8.5,ExtBa=12.82
28/09/2022,10:08:43,TEMP=15.7,BA=5.64,STAT.D=8.5,ExtBa=12.84
28/09/2022,10:23:44,TEMP=17.3,BA=5.64,STAT.D=8.5,ExtBa=12.83
28/09/2022,10:38:45,TEMP=17.7,BA=5.64,STAT.F,ExtBa=12.81
28/09/2022,10:53:44,TEMP=22.1,BA=5.48,STAT.D=7.0,ExtBa=12.43
28/09/2022,11:08:44,TEMP=17.7,BA=5.64,STAT.D=8.5,ExtBa=12.71
28/09/2022,11:23:43,TEMP=16.0,BA=5.64,STAT.D=8.5,ExtBa=12.79
28/09/2022,11:38:45,TEMP=16.7,BA=5.64,STAT.F,ExtBa=12.78
28/09/2022,11:53:44,TEMP=21.1,BA=5.48,STAT.D=8.0,ExtBa=12.46
28/09/2022,12:08:44,TEMP=18.9,BA=5.64,STAT.D=8.5,ExtBa=12.69
28/09/2022,12:23:44,TEMP=17.4,BA=5.64,STAT.D=8.5,ExtBa=12.76
28/09/2022,12:38:45,TEMP=19.2,BA=5.64,STAT.F,ExtBa=12.75
28/09/2022,12:53:43,TEMP=18.4,BA=5.64,STAT.D=8.5,ExtBa=12.79
28/09/2022,13:08:43,TEMP=19.3,BA=5.64,STAT.D=8.5,ExtBa=12.79
28/09/2022,13:23:43,TEMP=19.2,BA=5.64,STAT.D=8.5,ExtBa=12.79
28/09/2022,13:38:45,TEMP=18.0,BA=5.60,STAT.F,ExtBa=12.80
28/09/2022,13:53:43,TEMP=16.9,BA=5.60,STAT.D=8.5,ExtBa=12.83
28/09/2022,14:08:43,TEMP=17.9,BA=5.60,STAT.D=8.5,ExtBa=12.82
28/09/2022,14:23:43,TEMP=18.4,BA=5.60,STAT.D=8.5,ExtBa=12.82
28/09/2022,14:38:45,TEMP=18.1,BA=5.60,STAT.F,ExtBa=12.80
28/09/2022,14:52:46,TEMP=23.8,BA=5.44,STAT.A=6.5,ExtBa=12.35
28/09/2022,14:59:01,TEMP=19.6,BA=5.44,STAT.A=8.5,ExtBa=12.57
28/09/2022,15:11:40,TEMP=18.2,BA=5.60,STAT.A=8.5,ExtBa=12.67
28/09/2022,15:22:14,TEMP=18.4,BA=5.60,STAT.C=8.5,ExtBa=12.70
28/09/2022,15:36:08,TEMP=23.4,BA=5.44,STAT.A=6.5,ExtBa=12.35
28/09/2022,15:38:56,TEMP=21.7,BA=5.44,STAT.A=7.0,ExtBa=12.45
28/09/2022,15:45:42,TEMP=18.8,BA=5.48,STAT.A=8.5,ExtBa=12.59
28/09/2022,15:51:39,TEMP=17.8,BA=5.60,STAT.A=8.5,ExtBa=12.61
28/09/2022,15:56:57,TEMP=17.5,BA=5.60,STAT.B=8.5,ExtBa=12.61
28/09/2022,16:07:56,TEMP=19.1,BA=5.44,STAT.A=8.0,ExtBa=12.50
28/09/2022,16:16:35,TEMP=17.6,BA=5.60,STAT.A=8.5,ExtBa=12.63
28/09/2022,16:23:33,TEMP=17.8,BA=5.60,STAT.A=8.5,ExtBa=12.64
28/09/2022,16:29:19,TEMP=17.5,BA=5.60,STAT.A=8.5,ExtBa=12.63
28/09/2022,16:34:09,TEMP=17.1,BA=5.48,STAT.A=8.5,ExtBa=12.63
28/09/2022,16:38:17,TEMP=17.0,BA=5.48,STAT.A=8.5,ExtBa=12.61